createdAt,value
2019-04-20T00:00:40.164Z,99.90
2019-04-20T00:03:35.275Z,99.90
2019-04-20T00:06:27.071Z,99.90
2019-04-20T00:09:29.930Z,99.90
2019-04-20T00:12:34.480Z,99.90
2019-04-20T00:15:19.895Z,99.90
2019-04-20T00:18:16.992Z,99.90
2019-04-20T00:21:30.895Z,99.90
2019-04-20T00:24:50.701Z,99.90
2019-04-20T00:28:25.216Z,99.90
2019-04-20T00:31:22.485Z,99.90
2019-04-20T00:34:08.978Z,99.90
2019-04-20T00:36:58.198Z,99.90
2019-04-20T00:39:55.965Z,99.90
2019-04-20T00:42:55.143Z,99.90
2019-04-20T00:45:53.692Z,99.90
2019-04-20T00:48:53.976Z,99.90
2019-04-20T00:52:13.046Z,99.90
2019-04-20T00:54:43.174Z,99.90
2019-04-20T00:57:47.707Z,99.90
2019-04-20T01:01:04.078Z,99.90
2019-04-20T01:03:52.125Z,99.90
2019-04-20T01:07:05.158Z,99.90
2019-04-20T01:10:09.320Z,99.90
2019-04-20T01:13:13.361Z,99.90
2019-04-20T01:16:08.417Z,99.90
2019-04-20T01:19:02.105Z,99.90
2019-04-20T01:22:03.627Z,99.90
2019-04-20T01:25:00.125Z,99.90
2019-04-20T01:28:09.080Z,99.90
2019-04-20T01:31:06.418Z,99.90
2019-04-20T01:33:58.940Z,99.90
2019-04-20T01:37:00.976Z,99.90
2019-04-20T01:39:48.382Z,99.90
2019-04-20T01:42:40.571Z,99.90
2019-04-20T01:45:39.548Z,99.90
2019-04-20T01:48:38.018Z,99.90
2019-04-20T01:51:43.016Z,99.90
2019-04-20T01:54:48.213Z,99.90
2019-04-20T01:57:56.193Z,99.90
2019-04-20T02:00:56.359Z,99.90
2019-04-20T02:04:06.409Z,99.90
2019-04-20T02:07:03.354Z,99.90
2019-04-20T02:10:04.501Z,99.90
2019-04-20T02:13:00.172Z,99.90
2019-04-20T02:15:57.835Z,99.90
2019-04-20T02:19:09.018Z,99.90
2019-04-20T02:22:03.938Z,99.90
2019-04-20T02:24:47.107Z,99.90
2019-04-20T02:27:50.493Z,99.90
2019-04-20T02:31:24.823Z,99.90
2019-04-20T02:34:25.151Z,99.90
2019-04-20T02:43:49.755Z,99.90
2019-04-20T02:46:31.530Z,99.90
2019-04-20T02:49:35.928Z,99.90
2019-04-20T02:52:44.147Z,99.90
2019-04-20T02:55:24.590Z,99.90
2019-04-20T02:58:28.242Z,99.90
2019-04-20T03:01:45.543Z,99.90
2019-04-20T03:04:33.870Z,99.90
2019-04-20T03:07:31.476Z,99.90
2019-04-20T03:10:43.348Z,99.90
2019-04-20T03:13:38.595Z,99.90
2019-04-20T03:16:32.219Z,99.90
2019-04-20T03:19:25.014Z,99.90
2019-04-20T03:22:48.241Z,99.90
2019-04-20T03:26:06.438Z,99.90
2019-04-20T03:29:09.852Z,99.90
2019-04-20T03:32:53.866Z,99.90
2019-04-20T03:35:20.852Z,99.90
2019-04-20T03:38:11.750Z,99.90
2019-04-20T03:40:59.230Z,99.90
2019-04-20T03:43:45.857Z,99.90
2019-04-20T03:46:50.427Z,99.90
2019-04-20T03:50:00.885Z,99.90
2019-04-20T03:53:04.160Z,99.90
2019-04-20T03:56:00.691Z,99.90
2019-04-20T03:59:01.097Z,99.90
2019-04-20T04:02:29.765Z,99.90
2019-04-20T04:05:42.214Z,99.90
2019-04-20T04:08:38.992Z,99.90
2019-04-20T04:11:43.547Z,99.90
2019-04-20T04:14:26.088Z,99.90
2019-04-20T04:17:30.737Z,99.90
2019-04-20T04:20:21.446Z,99.90
2019-04-20T04:23:37.831Z,99.90
2019-04-20T04:26:30.099Z,99.90
2019-04-20T04:29:35.620Z,99.90
2019-04-20T04:32:45.411Z,99.90
2019-04-20T04:35:20.135Z,99.90
2019-04-20T04:38:27.179Z,99.90
2019-04-20T04:41:23.944Z,99.90
2019-04-20T04:44:17.990Z,99.90
2019-04-20T04:47:04.384Z,99.90
2019-04-20T04:50:05.625Z,99.90
2019-04-20T04:53:02.806Z,99.90
2019-04-20T04:55:59.535Z,99.90
2019-04-20T04:58:50.115Z,99.90
2019-04-20T05:01:50.007Z,99.90
2019-04-20T05:05:28.028Z,99.90
2019-04-20T05:08:10.195Z,99.90
2019-04-20T05:10:56.225Z,99.90
2019-04-20T05:13:58.540Z,99.90
2019-04-20T05:17:01.588Z,99.90
2019-04-20T05:20:03.636Z,99.90
2019-04-20T05:23:16.324Z,99.90
2019-04-20T05:26:59.649Z,99.90
2019-04-20T05:29:33.441Z,99.90
2019-04-20T05:32:35.777Z,99.90
2019-04-20T05:35:44.120Z,99.90
2019-04-20T05:39:05.219Z,99.90
2019-04-20T05:41:38.442Z,99.90
2019-04-20T05:44:44.414Z,99.90
2019-04-20T05:47:34.379Z,99.90
2019-04-20T05:50:37.745Z,99.90
2019-04-20T05:53:35.419Z,99.90
2019-04-20T05:56:35.325Z,99.90
2019-04-20T05:59:28.387Z,99.90
2019-04-20T06:02:29.154Z,99.90
2019-04-20T06:05:28.865Z,99.90
2019-04-20T06:08:32.084Z,99.90
2019-04-20T06:11:20.974Z,99.90
2019-04-20T06:14:39.480Z,99.90
2019-04-20T06:17:53.163Z,99.90
2019-04-20T06:20:52.385Z,99.90
2019-04-20T06:24:00.241Z,99.90
2019-04-20T06:26:59.236Z,99.90
2019-04-20T06:29:51.365Z,99.90
2019-04-20T06:34:05.573Z,99.90
2019-04-20T06:36:47.528Z,99.90
2019-04-20T06:39:50.589Z,99.90
2019-04-20T06:42:35.697Z,99.90
2019-04-20T06:45:48.918Z,99.90
2019-04-20T06:48:40.299Z,99.90
2019-04-20T06:51:34.616Z,99.90
2019-04-20T06:54:49.444Z,99.90
2019-04-20T06:57:45.032Z,99.90
2019-04-20T07:00:42.082Z,99.90
2019-04-20T07:03:51.395Z,99.20
2019-04-20T07:06:50.648Z,97.80
2019-04-20T07:09:47.420Z,97.70
2019-04-20T07:12:31.171Z,96.50
2019-04-20T07:15:29.023Z,95.20
2019-04-20T07:18:29.921Z,93.20
2019-04-20T07:21:52.151Z,92.70
2019-04-20T07:24:48.694Z,92.10
2019-04-20T07:27:41.579Z,92.10
2019-04-20T07:30:42.136Z,90.10
2019-04-20T07:33:39.437Z,89.10
2019-04-20T07:36:40.502Z,85.60
2019-04-20T07:39:34.984Z,81.90
2019-04-20T07:42:29.371Z,77.20
2019-04-20T07:48:20.921Z,71.10
2019-04-20T07:51:11.476Z,70.80
2019-04-20T07:54:23.227Z,68.40
2019-04-20T07:57:12.789Z,69.00
2019-04-20T08:00:06.332Z,65.30
2019-04-20T08:06:17.503Z,61.50
2019-04-20T08:09:23.109Z,59.00
2019-04-20T08:12:41.806Z,59.50
2019-04-20T08:18:42.863Z,55.30
2019-04-20T08:21:35.181Z,53.30
2019-04-20T08:24:29.974Z,53.30
2019-04-20T08:27:17.607Z,51.00
2019-04-20T08:30:33.614Z,51.00
2019-04-20T08:33:36.416Z,49.00
2019-04-20T08:36:39.134Z,48.90
2019-04-20T08:39:45.458Z,49.00
2019-04-20T08:42:30.108Z,47.20
2019-04-20T08:45:36.159Z,46.90
2019-04-20T08:48:28.892Z,47.20
2019-04-20T08:51:25.640Z,42.50
2019-04-20T08:54:21.754Z,42.60
2019-04-20T08:57:03.196Z,40.50
2019-04-20T09:00:00.936Z,40.90
2019-04-20T09:03:03.184Z,39.70
2019-04-20T09:06:03.521Z,39.50
2019-04-20T09:09:11.689Z,41.30
2019-04-20T09:12:09.134Z,40.80
2019-04-20T09:14:48.735Z,40.70
2019-04-20T09:17:54.791Z,40.30
2019-04-20T09:20:55.855Z,40.90
2019-04-20T09:24:10.533Z,39.70
2019-04-20T09:27:04.719Z,39.10
2019-04-20T09:33:06.255Z,36.20
2019-04-20T09:35:57.941Z,36.80
2019-04-20T09:39:11.248Z,36.20
2019-04-20T09:42:06.919Z,37.70
2019-04-20T09:45:05.823Z,36.70
2019-04-20T09:48:06.779Z,37.40
2019-04-20T09:51:20.075Z,34.80
2019-04-20T09:54:17.081Z,37.00
2019-04-20T09:57:13.419Z,36.80
2019-04-20T10:00:07.211Z,35.30
2019-04-20T10:02:50.432Z,35.50
2019-04-20T10:05:45.996Z,36.80
2019-04-20T10:08:50.765Z,31.90
2019-04-20T10:11:45.114Z,30.70
2019-04-20T10:14:40.686Z,30.60
2019-04-20T10:17:38.232Z,29.70
2019-04-20T10:20:37.885Z,29.70
2019-04-20T10:23:32.481Z,29.20
2019-04-20T10:26:30.280Z,30.30
2019-04-20T10:29:27.916Z,32.40
2019-04-20T10:32:31.130Z,29.90
2019-04-20T10:35:23.326Z,29.40
2019-04-20T10:38:32.837Z,29.60
2019-04-20T10:41:37.891Z,29.00
2019-04-20T10:44:27.106Z,28.80
2019-04-20T10:47:23.193Z,28.70
2019-04-20T10:50:20.900Z,29.60
2019-04-20T10:53:17.594Z,29.30
2019-04-20T10:56:15.728Z,29.80
2019-04-20T10:59:13.876Z,28.90
2019-04-20T11:02:09.878Z,27.90
2019-04-20T11:05:06.700Z,27.80
2019-04-20T11:08:02.298Z,28.00
2019-04-20T11:11:07.049Z,27.40
2019-04-20T11:13:55.406Z,28.70
2019-04-20T11:16:50.922Z,27.30
2019-04-20T11:19:47.525Z,27.30
2019-04-20T11:22:42.738Z,29.20
2019-04-20T11:25:38.398Z,28.40
2019-04-20T11:28:34.482Z,28.20
2019-04-20T11:31:36.346Z,28.30
2019-04-20T11:34:32.976Z,28.10
2019-04-20T11:37:24.916Z,28.70
2019-04-20T11:40:21.617Z,28.10
2019-04-20T11:43:19.806Z,29.70
2019-04-20T11:46:20.665Z,30.30
2019-04-20T11:49:19.649Z,29.30
2019-04-20T11:52:18.369Z,31.30
2019-04-20T11:55:13.203Z,29.30
2019-04-20T11:58:10.085Z,29.20
2019-04-20T12:01:37.986Z,28.30
2019-04-20T12:04:42.139Z,30.40
2019-04-20T12:07:38.192Z,29.40
2019-04-20T12:10:35.016Z,29.10
2019-04-20T12:13:31.121Z,27.80
2019-04-20T12:16:27.748Z,30.80
2019-04-20T12:19:24.848Z,29.90
2019-04-20T12:22:21.515Z,28.80
2019-04-20T12:25:18.314Z,28.90
2019-04-20T12:28:15.760Z,28.80
2019-04-20T12:31:16.693Z,28.50
2019-04-20T12:34:08.830Z,27.90
2019-04-20T12:37:05.300Z,27.60
2019-04-20T12:40:03.075Z,27.10
2019-04-20T12:43:01.323Z,27.10
2019-04-20T12:45:57.933Z,27.10
2019-04-20T12:48:55.575Z,27.70
2019-04-20T12:51:57.540Z,27.50
2019-04-20T12:54:48.774Z,28.00
2019-04-20T12:57:45.206Z,27.00
2019-04-20T13:00:46.145Z,27.90
2019-04-20T13:03:43.487Z,28.00
2019-04-20T13:06:40.850Z,27.10
2019-04-20T13:09:46.392Z,28.00
2019-04-20T13:12:52.336Z,28.00
2019-04-20T13:16:08.227Z,27.50
2019-04-20T13:19:05.680Z,26.90
2019-04-20T13:22:01.550Z,28.00
2019-04-20T13:24:57.094Z,26.50
2019-04-20T13:27:52.807Z,26.80
2019-04-20T13:30:50.095Z,27.20
2019-04-20T13:33:47.570Z,25.60
2019-04-20T13:36:44.093Z,25.90
2019-04-20T13:39:42.655Z,26.10
2019-04-20T13:42:39.365Z,26.90
2019-04-20T13:45:35.571Z,25.90
2019-04-20T13:48:32.946Z,26.60
2019-04-20T13:51:30.962Z,25.80
2019-04-20T13:54:29.851Z,25.40
2019-04-20T13:57:33.522Z,25.50
2019-04-20T14:00:45.039Z,26.70
2019-04-20T14:03:42.874Z,27.70
2019-04-20T14:06:39.584Z,25.50
2019-04-20T14:09:35.482Z,25.70
2019-04-20T14:12:37.195Z,25.30
2019-04-20T14:15:29.095Z,25.00
2019-04-20T14:18:26.928Z,25.80
2019-04-20T14:21:23.943Z,25.90
2019-04-20T14:24:21.306Z,25.50
2019-04-20T14:27:19.024Z,26.10
2019-04-20T14:30:17.153Z,25.60
2019-04-20T14:33:14.694Z,24.70
2019-04-20T14:36:11.146Z,25.80
2019-04-20T14:39:10.105Z,25.60
2019-04-20T14:42:07.416Z,25.70
2019-04-20T14:45:04.759Z,25.90
2019-04-20T14:48:01.693Z,26.50
2019-04-20T14:50:57.058Z,26.80
2019-04-20T14:53:53.780Z,26.10
2019-04-20T14:56:51.600Z,27.20
2019-04-20T14:59:56.972Z,26.30
2019-04-20T15:02:52.309Z,27.10
2019-04-20T15:05:48.807Z,27.10
2019-04-20T15:08:45.122Z,27.80
2019-04-20T15:11:46.025Z,27.70
2019-04-20T15:14:40.816Z,27.60
2019-04-20T15:17:45.808Z,28.60
2019-04-20T15:20:44.164Z,28.90
2019-04-20T15:23:39.757Z,28.70
2019-04-20T15:26:36.187Z,29.30
2019-04-20T15:29:32.577Z,29.90
2019-04-20T15:32:29.157Z,30.40
2019-04-20T15:35:26.254Z,31.60
2019-04-20T15:38:22.979Z,32.20
2019-04-20T15:41:19.011Z,31.40
2019-04-20T15:44:15.368Z,31.20
2019-04-20T15:47:11.270Z,32.10
2019-04-20T15:50:08.051Z,32.00
2019-04-20T15:53:04.100Z,32.30
2019-04-20T15:56:03.272Z,32.50
2019-04-20T15:58:56.935Z,32.00
2019-04-20T16:01:57.530Z,32.90
2019-04-20T16:05:16.466Z,33.20
2019-04-20T16:08:32.562Z,32.30
2019-04-20T16:11:28.746Z,32.40
2019-04-20T16:14:27.865Z,33.50
2019-04-20T16:17:24.321Z,33.80
2019-04-20T16:20:23.407Z,34.50
2019-04-20T16:23:18.552Z,33.70
2019-04-20T16:26:22.223Z,34.60
2019-04-20T16:29:17.776Z,34.90
2019-04-20T16:32:14.438Z,35.30
2019-04-20T16:35:11.608Z,35.30
2019-04-20T16:38:08.699Z,36.00
2019-04-20T16:41:04.310Z,34.50
2019-04-20T16:44:02.901Z,35.50
2019-04-20T16:47:00.496Z,36.10
2019-04-20T16:49:57.055Z,35.00
2019-04-20T16:52:54.940Z,36.40
2019-04-20T16:55:50.630Z,37.50
2019-04-20T16:58:49.610Z,37.80
2019-04-20T17:01:44.520Z,37.10
2019-04-20T17:04:41.067Z,37.10
2019-04-20T17:07:42.838Z,37.10
2019-04-20T17:10:39.336Z,38.60
2019-04-20T17:13:43.437Z,37.30
2019-04-20T17:16:35.441Z,37.60
2019-04-20T17:19:31.709Z,38.10
2019-04-20T17:22:29.414Z,38.50
2019-04-20T17:25:26.046Z,39.20
2019-04-20T17:28:46.984Z,39.10
2019-04-20T17:31:55.692Z,38.40
2019-04-20T17:35:03.141Z,38.40
2019-04-20T17:37:53.415Z,39.50
2019-04-20T17:41:07.325Z,39.20
2019-04-20T17:44:05.919Z,39.30
2019-04-20T17:46:58.189Z,40.10
2019-04-20T17:50:00.706Z,40.30
2019-04-20T17:52:57.886Z,39.50
2019-04-20T17:55:53.163Z,40.60
2019-04-20T17:58:50.128Z,41.00
2019-04-20T18:02:20.424Z,41.40
2019-04-20T18:05:40.532Z,42.50
2019-04-20T18:08:35.667Z,43.50
2019-04-20T18:11:21.665Z,43.90
2019-04-20T18:14:40.210Z,44.20
2019-04-20T18:18:07.263Z,45.00
2019-04-20T18:21:03.678Z,46.50
2019-04-20T18:24:00.542Z,47.00
2019-04-20T18:27:14.210Z,47.40
2019-04-20T18:30:10.718Z,49.20
2019-04-20T18:32:53.543Z,49.20
2019-04-20T18:35:50.745Z,49.40
2019-04-20T18:38:54.248Z,50.10
2019-04-20T18:41:51.495Z,51.00
2019-04-20T18:45:05.951Z,51.30
2019-04-20T18:48:02.922Z,51.20
2019-04-20T18:50:40.816Z,51.70
2019-04-20T18:53:41.074Z,53.30
2019-04-20T18:56:38.627Z,53.60
2019-04-20T18:59:31.764Z,54.10
2019-04-20T19:02:30.888Z,55.30
2019-04-20T19:05:24.041Z,55.70
2019-04-20T19:08:32.440Z,55.20
2019-04-20T19:11:21.576Z,55.10
2019-04-20T19:14:36.507Z,55.70
2019-04-20T19:18:06.856Z,56.90
2019-04-20T19:21:01.339Z,57.30
2019-04-20T19:24:06.851Z,57.80
2019-04-20T19:26:59.449Z,57.60
2019-04-20T19:29:59.846Z,58.70
2019-04-20T19:33:13.573Z,57.80
2019-04-20T19:35:56.103Z,58.10
2019-04-20T19:38:58.051Z,58.50
2019-04-20T19:41:50.714Z,59.70
2019-04-20T19:44:55.771Z,60.00
2019-04-20T19:47:50.272Z,59.20
2019-04-20T19:51:00.548Z,59.30
2019-04-20T19:53:58.717Z,60.70
2019-04-20T19:56:46.742Z,60.70
2019-04-20T19:59:34.262Z,61.00
2019-04-20T20:02:23.702Z,61.20
2019-04-20T20:05:28.996Z,61.80
2019-04-20T20:08:23.255Z,62.10
2019-04-20T20:11:24.308Z,62.80
2019-04-20T20:14:18.065Z,62.70
2019-04-20T20:17:32.888Z,62.50
2019-04-20T20:20:30.781Z,62.80
2019-04-20T20:23:06.250Z,64.20
2019-04-20T20:26:05.479Z,64.20
2019-04-20T20:29:08.208Z,64.50
2019-04-20T20:32:10.343Z,65.10
2019-04-20T20:35:05.025Z,64.70
2019-04-20T20:37:56.981Z,65.30
2019-04-20T20:41:02.952Z,65.70
2019-04-20T20:43:56.335Z,66.40
2019-04-20T20:47:00.771Z,66.80
2019-04-20T20:50:08.307Z,66.80
2019-04-20T20:52:54.749Z,67.50
2019-04-20T20:55:44.364Z,67.00
2019-04-20T20:58:48.548Z,68.00
2019-04-20T21:01:45.269Z,70.10
2019-04-20T21:04:33.479Z,69.20
2019-04-20T21:07:30.942Z,69.90
2019-04-20T21:10:31.986Z,68.60
2019-04-20T21:13:34.474Z,70.30
2019-04-20T21:16:29.623Z,69.30
2019-04-20T21:19:41.790Z,70.00
2019-04-20T21:22:43.563Z,71.30
2019-04-20T21:25:33.275Z,69.50
2019-04-20T21:28:22.760Z,67.70
2019-04-20T21:31:23.563Z,70.80
2019-04-20T21:34:19.902Z,70.10
2019-04-20T21:37:18.632Z,72.10
2019-04-20T21:40:23.218Z,74.10
2019-04-20T21:43:10.931Z,74.40
2019-04-20T21:46:10.131Z,75.90
2019-04-20T21:49:21.825Z,77.10
2019-04-20T21:52:05.063Z,77.30
2019-04-20T21:55:05.977Z,74.60
2019-04-20T21:58:03.859Z,71.60
2019-04-20T22:01:12.142Z,74.00
2019-04-20T22:04:02.653Z,76.20
2019-04-20T22:07:00.538Z,76.90
2019-04-20T22:09:56.824Z,80.10
2019-04-20T22:13:00.595Z,80.10
2019-04-20T22:16:01.187Z,83.50
2019-04-20T22:19:04.687Z,84.40
2019-04-20T22:22:00.601Z,86.70
2019-04-20T22:25:01.387Z,87.40
2019-04-20T22:27:48.282Z,87.80
2019-04-20T22:30:46.224Z,90.40
2019-04-20T22:33:44.649Z,90.70
2019-04-20T22:36:45.533Z,92.00
2019-04-20T22:39:47.681Z,92.30
2019-04-20T22:42:46.507Z,92.90
2019-04-20T22:45:41.155Z,94.20
2019-04-20T22:48:45.868Z,94.70
2019-04-20T22:51:44.822Z,95.60
2019-04-20T22:54:51.847Z,96.80
2019-04-20T22:57:47.009Z,98.20
2019-04-20T23:00:37.342Z,99.30
2019-04-20T23:03:26.895Z,99.70
2019-04-20T23:06:31.923Z,99.90
2019-04-20T23:09:22.616Z,99.90
2019-04-20T23:12:23.283Z,99.90
2019-04-20T23:15:18.348Z,99.90
2019-04-20T23:18:15.935Z,99.90
2019-04-20T23:21:15.795Z,99.90
2019-04-20T23:24:13.275Z,99.90
2019-04-20T23:27:14.041Z,99.90
2019-04-20T23:30:12.631Z,99.90
2019-04-20T23:33:04.626Z,99.90
2019-04-20T23:36:04.247Z,99.90
2019-04-20T23:39:01.606Z,99.90
2019-04-20T23:42:00.209Z,99.90
2019-04-20T23:45:02.231Z,99.90
2019-04-20T23:48:05.317Z,99.90
2019-04-20T23:51:26.387Z,99.90
2019-04-20T23:54:09.533Z,99.90
2019-04-20T23:56:59.964Z,99.90
2019-04-20T23:59:56.012Z,99.90
